Time;durP1;ratioP1;P1;durP2;ratioP2;P2;SDS_P1;SDS_P2;PMS_P1;PMS_P2;Temp;Humidity;BMP_temperature;BMP_pressure;BME280_temperature;BME280_humidity;BME280_pressure;Samples;Min_cycle;Max_cycle;Signal;HPM_P1;HPM_P2
2022/01/13 00:00:48;;;;;;;63.63;24.08;;;4.20;99.90;;;;;;4871362;29;20036;-66
2022/01/13 00:03:14;;;;;;;58.95;23.63;;;4.60;99.90;;;;;;4877135;29;20044;-66
2022/01/13 00:05:39;;;;;;;51.05;22.00;;;4.20;99.90;;;;;;4876582;29;20032;-66
2022/01/13 00:08:04;;;;;;;58.20;22.85;;;4.20;99.90;;;;;;4868323;29;20040;-66
2022/01/13 00:10:30;;;;;;;62.47;24.23;;;4.20;99.90;;;;;;4880676;29;20036;-66
2022/01/13 00:12:57;;;;;;;60.55;22.02;;;4.20;99.90;;;;;;4873514;29;20033;-66
2022/01/13 00:18:13;;;;;;;66.93;22.35;;;4.20;99.90;;;;;;4868399;29;20624;-65
2022/01/13 00:26:07;;;;;;;59.97;23.92;;;4.20;99.90;;;;;;4871224;29;20402;-66
2022/01/13 00:28:33;;;;;;;58.17;22.92;;;4.30;99.90;;;;;;4869144;29;20041;-66
2022/01/13 00:30:59;;;;;;;60.80;24.35;;;4.30;99.90;;;;;;4867125;29;20043;-66
2022/01/13 00:33:25;;;;;;;63.50;23.65;;;4.20;99.90;;;;;;4855258;29;20058;-66
2022/01/13 00:35:50;;;;;;;66.40;23.83;;;4.20;99.90;;;;;;4873522;29;20804;-66
2022/01/13 00:38:16;;;;;;;58.83;23.13;;;4.20;99.90;;;;;;4870325;29;20037;-66
2022/01/13 00:40:41;;;;;;;59.88;23.48;;;4.20;99.90;;;;;;4877868;29;20025;-66
2022/01/13 00:43:07;;;;;;;53.75;22.00;;;4.20;99.90;;;;;;4852096;29;20037;-66
2022/01/13 00:45:32;;;;;;;54.92;22.83;;;4.20;99.90;;;;;;4868062;29;20045;-66
2022/01/13 00:47:58;;;;;;;56.40;23.95;;;4.20;99.90;;;;;;4873173;29;20040;-66
2022/01/13 00:50:23;;;;;;;57.35;24.10;;;4.20;99.90;;;;;;4873192;29;20041;-66
2022/01/13 00:52:49;;;;;;;57.80;23.35;;;4.20;99.90;;;;;;4866546;29;20028;-66
2022/01/13 00:55:20;;;;;;;60.63;22.58;;;4.20;99.90;;;;;;4870843;29;20807;-66
2022/01/13 00:57:46;;;;;;;60.67;23.20;;;4.20;99.90;;;;;;4876953;29;20112;-66
2022/01/13 01:00:11;;;;;;;67.30;26.38;;;4.20;99.90;;;;;;4874344;29;20806;-66
2022/01/13 01:02:37;;;;;;;70.63;25.40;;;4.20;99.90;;;;;;4887560;29;20071;-66
2022/01/13 01:05:02;;;;;;;62.22;23.77;;;4.20;99.90;;;;;;4880322;29;20741;-66
2022/01/13 01:07:28;;;;;;;67.78;26.08;;;4.20;99.90;;;;;;4875199;29;20040;-67
2022/01/13 01:09:57;;;;;;;69.35;28.00;;;4.20;99.90;;;;;;4874268;29;20505;-66
2022/01/13 01:12:23;;;;;;;68.47;26.13;;;4.20;99.90;;;;;;4861282;29;20733;-66
2022/01/13 01:14:54;;;;;;;71.50;26.20;;;4.20;99.90;;;;;;4871745;29;20107;-66
2022/01/13 01:17:20;;;;;;;69.70;26.48;;;4.20;99.90;;;;;;4874761;29;20052;-66
2022/01/13 01:19:48;;;;;;;65.13;25.30;;;4.20;99.90;;;;;;4868439;29;20037;-66
2022/01/13 01:24:59;;;;;;;68.57;27.45;;;4.20;99.90;;;;;;4869488;29;20039;-66
2022/01/13 01:27:29;;;;;;;75.43;28.35;;;4.20;99.90;;;;;;4866480;29;20168;-66
2022/01/13 01:30:01;;;;;;;68.32;28.10;;;4.30;99.90;;;;;;4873014;29;20677;-66
2022/01/13 01:32:28;;;;;;;76.47;28.65;;;4.20;99.90;;;;;;4873579;29;20088;-66
2022/01/13 01:34:59;;;;;;;76.38;28.52;;;4.20;99.90;;;;;;4875136;29;20064;-66
2022/01/13 01:37:26;;;;;;;83.93;30.05;;;4.20;99.90;;;;;;4866181;29;20063;-66
2022/01/13 01:39:52;;;;;;;75.13;29.15;;;4.20;99.90;;;;;;4867792;29;20044;-66
2022/01/13 01:42:18;;;;;;;79.80;29.42;;;4.30;99.90;;;;;;4868434;29;20041;-66
2022/01/13 01:44:46;;;;;;;82.55;29.25;;;4.20;99.90;;;;;;4877380;29;20806;-66
2022/01/13 01:47:13;;;;;;;74.78;28.70;;;4.20;99.90;;;;;;4880467;29;20040;-66
2022/01/13 01:49:40;;;;;;;86.30;31.08;;;4.30;99.90;;;;;;4879410;29;20080;-66
2022/01/13 01:52:06;;;;;;;79.03;30.67;;;4.20;99.90;;;;;;4877656;29;20025;-67
2022/01/13 01:54:31;;;;;;;77.38;29.33;;;4.20;99.90;;;;;;4873411;29;20093;-66
2022/01/13 01:56:57;;;;;;;78.05;28.65;;;4.20;99.90;;;;;;4876246;29;20043;-66
2022/01/13 01:59:25;;;;;;;75.95;28.77;;;4.20;99.90;;;;;;4877914;29;20812;-66
2022/01/13 02:01:51;;;;;;;72.75;29.38;;;4.20;99.90;;;;;;4867567;29;20106;-66
2022/01/13 02:04:16;;;;;;;75.32;29.92;;;4.20;99.90;;;;;;4878082;29;20037;-66
2022/01/13 02:06:44;;;;;;;78.95;30.13;;;4.20;99.90;;;;;;4876717;29;20419;-66
2022/01/13 02:09:09;;;;;;;75.63;28.58;;;4.30;99.90;;;;;;4871845;29;20029;-66
2022/01/13 02:11:46;;;;;;;75.28;29.38;;;4.20;99.90;;;;;;4876624;29;20398;-66
2022/01/13 02:16:53;;;;;;;69.05;27.88;;;4.30;99.90;;;;;;4881004;29;20147;-66
2022/01/13 02:19:18;;;;;;;77.70;28.75;;;4.20;99.90;;;;;;4876194;29;20498;-66
2022/01/13 02:21:44;;;;;;;68.80;27.67;;;4.30;99.90;;;;;;4872904;29;20045;-66
2022/01/13 02:24:09;;;;;;;71.18;28.25;;;4.30;99.90;;;;;;4870852;29;20041;-66
2022/01/13 02:26:35;;;;;;;70.97;28.50;;;4.30;99.90;;;;;;4879008;29;20524;-66
2022/01/13 02:29:00;;;;;;;67.20;25.48;;;4.30;99.90;;;;;;4880498;29;20037;-66
2022/01/13 02:31:26;;;;;;;74.40;29.17;;;4.30;99.90;;;;;;4879095;29;20037;-66
2022/01/13 02:33:52;;;;;;;68.40;27.30;;;4.30;99.90;;;;;;4871642;29;20029;-66
2022/01/13 02:36:17;;;;;;;68.03;26.83;;;4.30;99.90;;;;;;4877539;29;20709;-66
2022/01/13 02:38:43;;;;;;;69.70;27.45;;;4.30;99.90;;;;;;4874076;29;20039;-67
2022/01/13 02:41:08;;;;;;;68.85;28.98;;;4.20;99.90;;;;;;4876297;29;20038;-66
2022/01/13 02:43:34;;;;;;;72.00;27.92;;;4.30;99.90;;;;;;4876102;29;20144;-66
2022/01/13 02:48:30;;;;;;;67.78;27.27;;;4.20;99.90;;;;;;4873454;29;20414;-66
2022/01/13 02:50:56;;;;;;;72.55;27.45;;;4.20;99.90;;;;;;4871342;29;20037;-66
2022/01/13 02:53:21;;;;;;;72.63;28.13;;;4.30;99.90;;;;;;4861687;29;20041;-66
2022/01/13 02:55:47;;;;;;;76.65;29.55;;;4.20;99.90;;;;;;4869531;29;20100;-66
2022/01/13 02:58:12;;;;;;;69.70;27.92;;;4.20;99.90;;;;;;4874227;29;20048;-66
2022/01/13 03:00:38;;;;;;;80.95;30.40;;;4.20;99.90;;;;;;4874301;29;20512;-66
2022/01/13 03:03:03;;;;;;;73.97;29.70;;;4.20;99.90;;;;;;4871559;29;20037;-66
2022/01/13 03:05:30;;;;;;;77.80;31.08;;;4.20;99.90;;;;;;4870320;29;20414;-66
2022/01/13 03:07:55;;;;;;;83.82;29.77;;;4.20;99.90;;;;;;4874003;29;20048;-66
2022/01/13 03:10:21;;;;;;;76.75;32.05;;;4.20;99.90;;;;;;4875395;29;20025;-66
2022/01/13 03:12:46;;;;;;;76.72;29.15;;;4.20;99.90;;;;;;4875352;29;20081;-67
2022/01/13 03:15:12;;;;;;;81.70;31.55;;;4.20;99.90;;;;;;4872821;29;20032;-66
2022/01/13 03:17:37;;;;;;;68.05;29.20;;;4.20;99.90;;;;;;4871867;29;20036;-66
2022/01/13 03:20:03;;;;;;;72.93;30.23;;;4.10;99.90;;;;;;4852984;29;20033;-66
2022/01/13 03:22:28;;;;;;;73.75;28.85;;;4.20;99.90;;;;;;4878250;29;21644;-66
2022/01/13 03:24:54;;;;;;;75.22;29.23;;;4.10;99.90;;;;;;4883178;29;20047;-66
2022/01/13 03:27:22;;;;;;;78.68;30.77;;;4.10;99.90;;;;;;4871818;29;20057;-67
2022/01/13 03:29:48;;;;;;;78.13;28.85;;;4.10;99.90;;;;;;4872407;29;20028;-66
2022/01/13 03:32:13;;;;;;;74.05;30.40;;;4.20;99.90;;;;;;4862856;29;20580;-66
2022/01/13 03:34:39;;;;;;;89.00;31.35;;;4.10;99.90;;;;;;4872300;29;20025;-66
2022/01/13 03:37:04;;;;;;;74.20;30.58;;;4.10;99.90;;;;;;4866812;29;20037;-66
2022/01/13 03:39:30;;;;;;;76.93;31.30;;;4.10;99.90;;;;;;4875400;29;20036;-66
2022/01/13 03:41:56;;;;;;;74.82;31.27;;;4.00;99.90;;;;;;4867377;29;20533;-66
2022/01/13 03:44:27;;;;;;;72.28;28.40;;;4.00;99.90;;;;;;4870691;29;20064;-66
2022/01/13 03:46:53;;;;;;;78.43;28.55;;;4.00;99.90;;;;;;4873369;29;20051;-66
2022/01/13 03:49:20;;;;;;;73.13;28.88;;;4.00;99.90;;;;;;4878441;29;20037;-66
2022/01/13 03:51:45;;;;;;;82.22;29.83;;;4.00;99.90;;;;;;4882092;29;20516;-66
2022/01/13 03:54:11;;;;;;;75.13;28.58;;;4.00;99.90;;;;;;4873119;29;20033;-67
2022/01/13 03:56:36;;;;;;;75.10;29.23;;;4.00;99.90;;;;;;4872526;29;20580;-67
2022/01/13 03:59:02;;;;;;;79.10;27.63;;;4.00;99.90;;;;;;4870466;29;20044;-67
2022/01/13 04:01:28;;;;;;;78.30;27.83;;;4.00;99.90;;;;;;4876634;29;20044;-67
2022/01/13 04:03:53;;;;;;;71.13;30.08;;;4.00;99.90;;;;;;4875424;29;20036;-67
2022/01/13 04:06:19;;;;;;;76.38;28.83;;;4.00;99.90;;;;;;4875964;29;20394;-67
2022/01/13 04:08:44;;;;;;;79.90;28.58;;;4.00;99.90;;;;;;4875736;29;20043;-67
2022/01/13 04:11:10;;;;;;;80.40;29.05;;;4.00;99.90;;;;;;4870447;29;20033;-67
2022/01/13 04:16:13;;;;;;;79.18;29.45;;;3.90;99.90;;;;;;4871446;29;20111;-67
2022/01/13 04:18:38;;;;;;;85.35;29.67;;;3.90;99.90;;;;;;4862399;29;20028;-67
2022/01/13 04:21:04;;;;;;;81.45;29.73;;;3.80;99.90;;;;;;4873811;29;20032;-67
2022/01/13 04:23:29;;;;;;;82.82;29.08;;;3.80;99.90;;;;;;4873405;29;20037;-67
2022/01/13 04:25:54;;;;;;;87.38;29.95;;;3.80;99.90;;;;;;4875843;29;20071;-67
2022/01/13 04:28:26;;;;;;;90.68;29.65;;;3.80;99.90;;;;;;4869925;29;20044;-67
2022/01/13 04:31:00;;;;;;;81.32;29.55;;;3.80;99.90;;;;;;4873704;29;20556;-65
2022/01/13 04:33:25;;;;;;;81.43;29.10;;;3.80;99.90;;;;;;4882178;29;20688;-65
2022/01/13 04:35:51;;;;;;;74.00;28.15;;;3.90;99.90;;;;;;4876356;29;20025;-65
2022/01/13 04:38:16;;;;;;;73.40;28.65;;;3.90;99.90;;;;;;4870761;29;20055;-65
2022/01/13 04:40:45;;;;;;;80.07;27.88;;;3.90;99.90;;;;;;4865989;29;20466;-65
2022/01/13 04:43:11;;;;;;;81.97;29.30;;;3.80;99.90;;;;;;4868220;29;20037;-65
2022/01/13 04:45:36;;;;;;;75.80;28.80;;;3.80;99.90;;;;;;4870031;29;20036;-67
2022/01/13 04:48:02;;;;;;;79.25;27.65;;;3.90;99.90;;;;;;4876440;29;20044;-67
2022/01/13 04:50:28;;;;;;;79.57;28.65;;;3.80;99.90;;;;;;4876802;29;20025;-65
2022/01/13 04:52:53;;;;;;;86.50;29.27;;;3.80;99.90;;;;;;4867617;29;20021;-65
2022/01/13 04:55:24;;;;;;;83.20;28.92;;;3.80;99.90;;;;;;4869239;29;20041;-65
2022/01/13 04:57:50;;;;;;;100.05;30.20;;;3.80;99.90;;;;;;4867249;29;20680;-65
2022/01/13 05:00:15;;;;;;;85.82;30.05;;;3.70;99.90;;;;;;4876168;29;20056;-65
2022/01/13 05:02:41;;;;;;;90.63;29.83;;;3.70;99.90;;;;;;4880223;29;20036;-65
2022/01/13 05:05:06;;;;;;;86.20;30.67;;;3.80;99.90;;;;;;4882166;29;20063;-65
2022/01/13 05:07:32;;;;;;;80.25;29.45;;;3.70;99.90;;;;;;4876942;29;20044;-65
2022/01/13 05:09:58;;;;;;;83.93;28.30;;;3.70;99.90;;;;;;4880570;29;20032;-65
2022/01/13 05:12:29;;;;;;;93.28;28.92;;;3.70;99.90;;;;;;4877866;29;20085;-65
2022/01/13 05:14:58;;;;;;;82.07;30.90;;;3.70;99.90;;;;;;4867504;29;20033;-65
2022/01/13 05:17:47;;;;;;;85.47;29.52;;;3.70;99.90;;;;;;4878898;29;20036;-65
2022/01/13 05:20:14;;;;;;;86.28;30.30;;;3.70;99.90;;;;;;4872965;29;20033;-65
2022/01/13 05:22:40;;;;;;;96.82;30.60;;;3.70;99.90;;;;;;4876489;29;20075;-65
2022/01/13 05:25:06;;;;;;;84.10;32.17;;;3.60;99.90;;;;;;4870495;29;20638;-65
2022/01/13 05:27:31;;;;;;;82.75;29.63;;;3.70;99.90;;;;;;4877761;29;20044;-65
2022/01/13 05:29:58;;;;;;;92.28;30.40;;;3.70;99.90;;;;;;4872283;29;20485;-65
2022/01/13 05:32:24;;;;;;;84.28;30.08;;;3.60;99.90;;;;;;4881840;29;20557;-65
2022/01/13 05:34:49;;;;;;;98.22;30.77;;;3.60;99.90;;;;;;4872588;29;20037;-65
2022/01/13 05:37:15;;;;;;;97.43;32.47;;;3.60;99.90;;;;;;4868032;29;20048;-67
2022/01/13 05:39:40;;;;;;;89.30;30.38;;;3.60;99.90;;;;;;4870630;29;20032;-67
2022/01/13 05:42:06;;;;;;;95.00;31.60;;;3.60;99.90;;;;;;4877161;29;20397;-68
2022/01/13 05:44:38;;;;;;;103.15;32.33;;;3.60;99.90;;;;;;4875030;29;20029;-68
2022/01/13 05:47:04;;;;;;;97.65;31.98;;;3.60;99.90;;;;;;4870979;29;20043;-67
2022/01/13 05:49:29;;;;;;;101.18;31.48;;;3.60;99.90;;;;;;4876271;29;20037;-65
2022/01/13 05:51:55;;;;;;;86.43;30.92;;;3.60;99.90;;;;;;4873782;29;20107;-65
2022/01/13 05:54:20;;;;;;;99.10;31.30;;;3.50;99.90;;;;;;4854641;29;20065;-63
2022/01/13 05:56:45;;;;;;;105.40;32.72;;;3.60;99.90;;;;;;4868154;29;20063;-63
2022/01/13 05:59:11;;;;;;;99.57;31.45;;;3.50;99.90;;;;;;4873755;29;20390;-63
2022/01/13 06:01:36;;;;;;;97.50;33.00;;;3.60;99.90;;;;;;4873044;29;20025;-64
2022/01/13 06:04:02;;;;;;;100.03;33.35;;;3.60;99.90;;;;;;4868843;29;20537;-64
2022/01/13 06:06:27;;;;;;;105.65;32.75;;;3.60;99.90;;;;;;4869231;29;20041;-64
2022/01/13 06:08:53;;;;;;;101.03;32.28;;;3.60;99.90;;;;;;4870793;29;20056;-64
2022/01/13 06:11:22;;;;;;;99.82;34.22;;;3.60;99.90;;;;;;4874398;29;20474;-64
2022/01/13 06:13:48;;;;;;;100.25;30.65;;;3.60;99.90;;;;;;4881460;29;20120;-64
2022/01/13 06:16:13;;;;;;;106.15;33.28;;;3.60;99.90;;;;;;4853167;29;20128;-64
2022/01/13 06:18:39;;;;;;;110.78;33.22;;;3.60;99.90;;;;;;4877034;29;20040;-64
2022/01/13 06:21:04;;;;;;;106.00;32.85;;;3.60;99.90;;;;;;4872811;29;20041;-64
2022/01/13 06:23:30;;;;;;;101.82;31.88;;;3.60;99.90;;;;;;4875385;29;20636;-64
2022/01/13 06:25:57;;;;;;;113.20;32.50;;;3.60;99.90;;;;;;4863804;29;20131;-64
2022/01/13 06:28:23;;;;;;;110.70;33.22;;;3.60;99.90;;;;;;4874188;29;20884;-64
2022/01/13 06:30:48;;;;;;;109.13;34.30;;;3.60;99.90;;;;;;4870672;29;20040;-64
2022/01/13 06:33:14;;;;;;;106.88;33.45;;;3.60;99.90;;;;;;4868914;29;20036;-64
2022/01/13 06:35:39;;;;;;;109.72;32.95;;;3.60;99.90;;;;;;4874370;29;20037;-64
2022/01/13 06:38:05;;;;;;;123.85;35.00;;;3.60;99.90;;;;;;4876715;29;20040;-64
2022/01/13 06:40:31;;;;;;;112.95;36.38;;;3.60;99.90;;;;;;4876871;29;20068;-64
2022/01/13 06:42:56;;;;;;;117.72;34.08;;;3.60;99.90;;;;;;4874972;29;20039;-64
2022/01/13 06:45:21;;;;;;;121.85;33.40;;;3.60;99.90;;;;;;4873953;29;20092;-64
2022/01/13 06:47:47;;;;;;;126.45;35.20;;;3.60;99.90;;;;;;4871296;29;20033;-64
2022/01/13 06:50:13;;;;;;;115.45;33.88;;;3.60;99.90;;;;;;4870398;29;20044;-64
2022/01/13 06:52:38;;;;;;;108.10;32.20;;;3.60;99.90;;;;;;4879751;29;20563;-64
2022/01/13 06:55:04;;;;;;;121.93;33.90;;;3.60;99.90;;;;;;4875285;29;20262;-64
2022/01/13 06:57:33;;;;;;;118.97;33.28;;;3.60;99.90;;;;;;4875192;29;20033;-64
2022/01/13 06:59:59;;;;;;;118.20;33.88;;;3.60;99.90;;;;;;4872122;29;20040;-64
2022/01/13 07:02:26;;;;;;;121.18;35.15;;;3.60;99.90;;;;;;4871774;29;20033;-64
2022/01/13 07:04:52;;;;;;;125.43;32.38;;;3.60;99.90;;;;;;4877095;29;20519;-64
2022/01/13 07:07:18;;;;;;;124.07;32.63;;;3.60;99.90;;;;;;4877174;29;20037;-64
2022/01/13 07:09:43;;;;;;;122.93;34.50;;;3.60;99.90;;;;;;4876978;29;20033;-64
2022/01/13 07:12:09;;;;;;;132.52;34.78;;;3.60;99.90;;;;;;4874994;29;20902;-64
2022/01/13 07:14:34;;;;;;;133.98;34.35;;;3.50;99.90;;;;;;4857090;29;20071;-64
2022/01/13 07:17:00;;;;;;;121.15;32.63;;;3.60;99.90;;;;;;4870184;29;20036;-64
2022/01/13 07:19:25;;;;;;;140.52;34.10;;;3.60;99.90;;;;;;4874951;29;20116;-64
2022/01/13 07:21:51;;;;;;;133.23;34.00;;;3.60;99.90;;;;;;4877259;29;20036;-64
2022/01/13 07:24:16;;;;;;;125.55;32.97;;;3.60;99.90;;;;;;4877386;29;20126;-64
2022/01/13 07:26:42;;;;;;;141.60;36.53;;;3.60;99.90;;;;;;4877275;29;20111;-64
2022/01/13 07:29:08;;;;;;;130.98;32.78;;;3.60;99.90;;;;;;4871087;29;20029;-64
2022/01/13 07:31:33;;;;;;;126.35;32.90;;;3.70;99.90;;;;;;4870565;29;20040;-64
2022/01/13 07:33:58;;;;;;;123.30;33.10;;;3.60;99.90;;;;;;4875047;29;20032;-64
2022/01/13 07:36:24;;;;;;;128.82;33.65;;;3.70;99.90;;;;;;4875276;29;20064;-64
2022/01/13 07:38:49;;;;;;;125.68;33.72;;;3.70;99.90;;;;;;4874566;29;20151;-65
2022/01/13 07:41:15;;;;;;;120.82;33.70;;;3.70;99.90;;;;;;4870740;29;20128;-64
2022/01/13 07:43:43;;;;;;;126.20;33.72;;;3.70;99.90;;;;;;4874684;29;20131;-64
2022/01/13 07:46:09;;;;;;;136.05;32.80;;;3.70;99.90;;;;;;4871693;29;20400;-64
2022/01/13 07:48:35;;;;;;;124.57;31.65;;;3.70;99.90;;;;;;4880511;29;20044;-64
2022/01/13 07:51:03;;;;;;;133.15;34.15;;;3.70;99.90;;;;;;4874924;29;20025;-64
2022/01/13 07:53:28;;;;;;;133.48;33.30;;;3.70;99.90;;;;;;4874388;29;20048;-64
2022/01/13 07:55:54;;;;;;;117.18;31.40;;;3.70;99.90;;;;;;4870989;29;20097;-64
2022/01/13 07:58:19;;;;;;;125.55;32.40;;;3.70;99.90;;;;;;4869591;29;20940;-64
2022/01/13 08:00:45;;;;;;;126.32;32.45;;;3.70;99.90;;;;;;4871982;29;20036;-65
2022/01/13 08:03:11;;;;;;;133.20;32.38;;;3.70;99.90;;;;;;4875262;29;20033;-64
2022/01/13 08:05:36;;;;;;;118.25;30.90;;;3.80;99.90;;;;;;4875688;29;20119;-64
2022/01/13 08:08:02;;;;;;;109.85;31.70;;;3.80;99.90;;;;;;4871498;29;20521;-64
2022/01/13 08:10:27;;;;;;;117.35;31.75;;;3.80;99.90;;;;;;4870458;29;20113;-64
2022/01/13 08:12:54;;;;;;;113.85;30.30;;;3.80;99.90;;;;;;4869644;29;20073;-64
2022/01/13 08:15:19;;;;;;;126.35;33.75;;;3.80;99.90;;;;;;4872195;29;20159;-64
2022/01/13 08:20:29;;;;;;;116.38;30.27;;;3.80;99.90;;;;;;4880939;29;20087;-64
2022/01/13 08:22:55;;;;;;;123.75;31.25;;;3.80;99.90;;;;;;4869067;29;20025;-65
2022/01/13 08:25:21;;;;;;;117.35;31.27;;;3.90;99.90;;;;;;4878368;29;20501;-64
2022/01/13 08:27:46;;;;;;;111.38;29.48;;;3.80;99.90;;;;;;4865831;29;20132;-64
2022/01/13 08:30:12;;;;;;;121.55;30.67;;;3.80;99.90;;;;;;4874492;29;20043;-64
2022/01/13 08:32:37;;;;;;;114.68;31.27;;;3.80;99.90;;;;;;4874600;29;20029;-64
2022/01/13 08:35:03;;;;;;;103.10;28.83;;;3.90;99.90;;;;;;4872574;29;20624;-64
2022/01/13 08:37:29;;;;;;;109.75;29.35;;;3.80;99.90;;;;;;4871695;29;20111;-64
2022/01/13 08:39:56;;;;;;;118.82;31.50;;;3.90;99.90;;;;;;4877219;29;20081;-64
2022/01/13 08:42:22;;;;;;;108.93;29.90;;;3.90;99.90;;;;;;4871999;29;20140;-65
2022/01/13 08:44:47;;;;;;;121.38;31.80;;;3.90;99.90;;;;;;4868989;29;20115;-64
2022/01/13 08:47:13;;;;;;;113.68;29.15;;;3.90;99.90;;;;;;4873056;29;20052;-64
2022/01/13 08:49:38;;;;;;;111.53;29.88;;;3.90;99.90;;;;;;4875466;29;20084;-64
2022/01/13 08:52:04;;;;;;;107.40;28.80;;;3.90;99.90;;;;;;4869089;29;20101;-64
2022/01/13 08:54:29;;;;;;;117.80;30.33;;;3.90;99.90;;;;;;4868866;29;20044;-64
2022/01/13 08:56:55;;;;;;;126.50;30.63;;;3.90;99.90;;;;;;4869899;29;20544;-64
2022/01/13 08:59:20;;;;;;;112.50;30.30;;;3.90;99.90;;;;;;4873124;29;20043;-64
2022/01/13 09:01:46;;;;;;;116.88;29.33;;;3.90;99.90;;;;;;4874094;29;20048;-64
2022/01/13 09:04:11;;;;;;;112.15;29.50;;;3.90;99.90;;;;;;4874167;29;20028;-65
2022/01/13 09:06:37;;;;;;;116.00;31.58;;;3.90;99.90;;;;;;4872554;29;20115;-66
2022/01/13 09:09:02;;;;;;;104.47;28.58;;;4.00;99.90;;;;;;4876068;29;20029;-66
2022/01/13 09:11:28;;;;;;;107.93;29.92;;;4.00;99.90;;;;;;4874000;29;20064;-67
2022/01/13 09:13:57;;;;;;;101.38;28.40;;;4.00;99.90;;;;;;4878212;29;20469;-65
2022/01/13 09:16:24;;;;;;;102.55;28.90;;;4.00;99.90;;;;;;4875752;29;20045;-63
2022/01/13 09:21:21;;;;;;;117.47;30.00;;;4.00;99.90;;;;;;4875403;29;20124;-64
2022/01/13 09:23:46;;;;;;;113.07;30.08;;;4.00;99.90;;;;;;4856432;29;20028;-64
2022/01/13 09:26:12;;;;;;;116.88;29.52;;;4.00;99.90;;;;;;4877909;29;20491;-64
2022/01/13 09:28:37;;;;;;;121.20;28.00;;;4.00;99.90;;;;;;4883405;29;20031;-63
2022/01/13 09:31:03;;;;;;;115.75;29.80;;;3.90;99.90;;;;;;4873902;29;20510;-63
2022/01/13 09:33:29;;;;;;;128.73;31.08;;;4.00;99.90;;;;;;4881444;29;20061;-64
2022/01/13 09:35:54;;;;;;;119.10;28.92;;;4.00;99.90;;;;;;4872589;29;20036;-64
2022/01/13 09:38:20;;;;;;;103.82;27.05;;;4.00;99.90;;;;;;4869905;29;20041;-64
2022/01/13 09:40:45;;;;;;;115.25;28.92;;;4.00;99.90;;;;;;4875772;29;20799;-63
2022/01/13 09:43:11;;;;;;;112.82;29.23;;;4.00;99.90;;;;;;4874107;29;20037;-63
2022/01/13 09:45:36;;;;;;;120.40;28.88;;;4.00;99.90;;;;;;4871008;29;20804;-64
2022/01/13 09:48:02;;;;;;;108.20;29.23;;;4.00;99.90;;;;;;4874716;29;20040;-63
2022/01/13 09:50:27;;;;;;;110.45;30.17;;;4.00;99.90;;;;;;4867677;29;20754;-63
2022/01/13 09:52:53;;;;;;;122.40;30.25;;;4.00;99.90;;;;;;4870290;29;20056;-64
2022/01/13 09:55:19;;;;;;;125.63;29.73;;;4.00;99.90;;;;;;4877185;29;20039;-64
2022/01/13 09:57:44;;;;;;;108.85;28.13;;;4.00;99.90;;;;;;4877518;29;20399;-64
2022/01/13 10:00:10;;;;;;;111.22;27.90;;;4.10;99.90;;;;;;4874301;29;20568;-64
2022/01/13 10:02:35;;;;;;;104.60;28.98;;;4.10;99.90;;;;;;4874137;29;20124;-64
2022/01/13 10:05:01;;;;;;;110.20;28.45;;;4.00;99.90;;;;;;4871681;29;20033;-64
2022/01/13 10:07:26;;;;;;;101.82;27.58;;;4.10;99.90;;;;;;4876067;29;20091;-64
2022/01/13 10:09:51;;;;;;;103.30;28.67;;;4.10;99.90;;;;;;4881497;29;20035;-64
2022/01/13 10:12:17;;;;;;;99.28;26.42;;;4.10;99.90;;;;;;4862321;29;20029;-64
2022/01/13 10:17:08;;;;;;;89.50;25.70;;;4.10;99.90;;;;;;4882658;29;20075;-63
2022/01/13 10:19:34;;;;;;;108.63;27.92;;;4.10;99.90;;;;;;4878970;29;20036;-64
2022/01/13 10:21:59;;;;;;;99.38;26.30;;;4.10;99.90;;;;;;4883901;29;20564;-63
2022/01/13 10:24:25;;;;;;;97.78;25.17;;;4.10;99.90;;;;;;4877421;29;21056;-63
2022/01/13 10:26:50;;;;;;;96.72;27.52;;;4.10;99.90;;;;;;4870040;29;20405;-64
2022/01/13 10:29:16;;;;;;;93.10;26.00;;;4.10;99.90;;;;;;4872598;29;20049;-64
2022/01/13 10:31:41;;;;;;;98.05;26.25;;;4.10;99.90;;;;;;4876118;29;20033;-64
2022/01/13 10:34:06;;;;;;;87.22;24.27;;;4.10;99.90;;;;;;4870766;29;20029;-63
2022/01/13 10:36:32;;;;;;;90.47;24.48;;;4.10;99.90;;;;;;4879036;29;20462;-64
2022/01/13 10:38:57;;;;;;;91.90;26.55;;;4.10;99.90;;;;;;4879450;29;20091;-63
2022/01/13 10:41:31;;;;;;;91.43;24.95;;;4.10;99.90;;;;;;4879047;29;20048;-64
2022/01/13 10:43:57;;;;;;;84.25;23.30;;;4.20;99.90;;;;;;4872929;29;20045;-64
2022/01/13 10:46:22;;;;;;;84.82;23.13;;;4.20;99.90;;;;;;4869940;29;20036;-63
2022/01/13 10:48:48;;;;;;;87.18;24.13;;;4.20;99.90;;;;;;4874071;29;20033;-63
2022/01/13 10:51:13;;;;;;;78.57;21.45;;;4.20;99.90;;;;;;4880248;29;20508;-64
2022/01/13 10:53:39;;;;;;;77.60;22.73;;;4.70;99.90;;;;;;5587100;23;20072;-71
2022/01/13 10:56:05;;;;;;;81.05;23.38;;;4.30;99.90;;;;;;4864425;23;20072;-67
2022/01/13 10:58:30;;;;;;;77.15;21.38;;;4.30;99.90;;;;;;4850304;29;20034;-67
2022/01/13 11:00:56;;;;;;;78.82;21.95;;;4.30;99.90;;;;;;4837518;29;20043;-66
2022/01/13 11:03:21;;;;;;;71.72;21.15;;;4.30;99.90;;;;;;4860552;29;20068;-66
2022/01/13 11:05:47;;;;;;;79.28;21.33;;;4.40;99.90;;;;;;4861779;29;20040;-68
2022/01/13 11:08:13;;;;;;;67.85;21.08;;;4.40;99.90;;;;;;4845579;29;20037;-67
2022/01/13 11:10:40;;;;;;;73.60;20.65;;;4.40;99.90;;;;;;4852240;29;20035;-67
2022/01/13 11:13:08;;;;;;;65.63;20.83;;;4.50;99.90;;;;;;4849387;29;20034;-67
2022/01/13 11:15:34;;;;;;;67.82;19.30;;;4.40;99.90;;;;;;4854448;29;20116;-66
2022/01/13 11:18:00;;;;;;;66.28;19.42;;;4.40;99.90;;;;;;4861019;29;20738;-66
2022/01/13 11:20:25;;;;;;;71.13;21.30;;;4.40;99.90;;;;;;4858317;29;20109;-67
2022/01/13 11:22:51;;;;;;;69.40;19.55;;;4.50;99.90;;;;;;4858609;29;20079;-67
2022/01/13 11:25:16;;;;;;;62.22;19.63;;;4.50;99.90;;;;;;4862490;29;20044;-67
2022/01/13 11:27:42;;;;;;;58.40;18.67;;;4.50;99.90;;;;;;4857911;29;20832;-67
2022/01/13 11:30:07;;;;;;;65.70;20.67;;;4.60;99.90;;;;;;4861765;29;20066;-67
2022/01/13 11:32:33;;;;;;;69.07;20.30;;;4.60;99.90;;;;;;4864086;29;20116;-67
2022/01/13 11:34:58;;;;;;;72.57;21.75;;;4.60;99.90;;;;;;4862593;29;20039;-67
2022/01/13 11:37:24;;;;;;;68.80;19.95;;;4.60;99.90;;;;;;4858948;29;20497;-67
2022/01/13 11:39:50;;;;;;;61.38;19.13;;;4.70;99.90;;;;;;4863881;29;20033;-67
2022/01/13 11:42:15;;;;;;;60.08;20.17;;;4.70;99.90;;;;;;4863721;29;20045;-67
2022/01/13 11:44:41;;;;;;;61.60;18.88;;;4.80;99.90;;;;;;4863464;29;20029;-66
2022/01/13 11:47:08;;;;;;;64.65;20.50;;;4.80;99.90;;;;;;4861219;29;20057;-66
2022/01/13 11:49:45;;;;;;;60.53;20.38;;;4.80;99.90;;;;;;4864084;29;20786;-66
2022/01/13 11:52:26;;;;;;;63.65;19.63;;;4.90;99.90;;;;;;4861900;29;20037;-66
2022/01/13 11:54:51;;;;;;;57.47;18.70;;;4.90;99.90;;;;;;4857952;29;20041;-72
2022/01/13 11:57:17;;;;;;;59.90;20.10;;;4.90;99.90;;;;;;4851490;29;20040;-66
2022/01/13 11:59:42;;;;;;;59.30;19.20;;;4.90;99.90;;;;;;4844246;29;20859;-67
2022/01/13 12:02:07;;;;;;;57.30;19.23;;;4.90;99.90;;;;;;4856733;29;20037;-66
2022/01/13 12:04:33;;;;;;;67.00;19.38;;;4.90;99.90;;;;;;4855849;29;20477;-66
2022/01/13 12:06:58;;;;;;;58.25;19.35;;;5.00;99.90;;;;;;4852090;29;20110;-66
2022/01/13 12:09:24;;;;;;;64.82;20.88;;;5.10;99.90;;;;;;4855202;29;20045;-66
2022/01/13 12:11:55;;;;;;;54.20;18.70;;;5.10;99.90;;;;;;4852834;29;20040;-66
2022/01/13 12:14:21;;;;;;;55.60;19.02;;;5.00;99.90;;;;;;4847916;29;20417;-66
2022/01/13 12:16:46;;;;;;;59.13;19.65;;;5.00;99.90;;;;;;4851409;29;20033;-66
2022/01/13 12:19:15;;;;;;;59.60;19.48;;;5.10;99.90;;;;;;4840534;29;20088;-66
2022/01/13 12:21:46;;;;;;;63.17;21.48;;;5.20;99.90;;;;;;4850026;29;20041;-66
2022/01/13 12:24:18;;;;;;;74.35;20.73;;;5.20;99.90;;;;;;4858924;29;20052;-66
2022/01/13 12:26:43;;;;;;;63.45;20.25;;;5.20;99.90;;;;;;4852191;29;20835;-66
2022/01/13 12:29:09;;;;;;;62.08;19.70;;;5.20;99.90;;;;;;4855486;29;20077;-66
2022/01/13 12:31:34;;;;;;;69.32;20.25;;;5.20;99.90;;;;;;4849873;29;20075;-66
2022/01/13 12:34:00;;;;;;;62.00;19.88;;;5.20;99.90;;;;;;4837633;29;20473;-66
2022/01/13 12:36:25;;;;;;;61.20;19.80;;;5.20;99.90;;;;;;4854654;29;20430;-66
2022/01/13 12:38:50;;;;;;;64.60;20.08;;;5.20;99.90;;;;;;4850012;29;20026;-66
2022/01/13 12:41:23;;;;;;;59.63;19.88;;;5.20;99.90;;;;;;4857180;29;20037;-66
2022/01/13 12:44:01;;;;;;;52.67;19.05;;;5.20;99.90;;;;;;4857303;29;20091;-66
2022/01/13 12:46:26;;;;;;;56.72;18.90;;;5.20;99.90;;;;;;4858934;29;20037;-66
2022/01/13 12:48:52;;;;;;;62.20;20.83;;;5.20;99.90;;;;;;4861367;29;20400;-66
2022/01/13 12:51:17;;;;;;;60.20;19.38;;;5.10;99.90;;;;;;4859112;29;20036;-66
2022/01/13 12:53:43;;;;;;;53.63;18.60;;;5.10;99.90;;;;;;4860436;29;20129;-66